Details From LFKF - Figari Sud Corse
To LIRS - GROSSETO
Flight Number -
Tags decoded
Created
Modified
Stats Distance 165 nm / 305 km
Max Altitude 0 ft / 0 m
Waypoints 5
Social Downloads 0
Likes 0
Share VATSIM

Download

Looking for another format? Having issues loading an existing format? Contact us
Advertisement - Login to hide

Notes

Requested: LFKF LFKJ LFKS LFKB LIRS

Route

LFKF LFKJ LFKS LFKB LIRS

ID Type Via Altitude Latitude Longitude Leg Dist Tot Dist Heading (true) Name
O LFKF APT - 0 ft / 0 m 41.50206˚ 9.09696˚ - 0 nm - Figari Sud Corse
LFKJ APT - 0 ft / 0 m 41.92289˚ 8.79959˚ 28 nm 28 nm 332° / 332° Napoleon Bonaparte
LFKS APT - 0 ft / 0 m 41.92462˚ 9.40532˚ 27 nm 55 nm 90° / 90° Solenzara
LFKB APT - 0 ft / 0 m 42.55251˚ 9.48371˚ 37 nm 93 nm 5° / 5° Bastia Poretta
O LIRS APT - 0 ft / 0 m 42.76028˚ 11.07198˚ 71 nm 164 nm 79° / 80° GROSSETO

Altitude Profile

Advertisement - Login to hide

Weather


0- 5 10 15 20 25 30 35+ Temperature / ° C

Clouds and Precipitation
Forecast for 2018-05-23 06:00 UTC. Updated 29 minutes ago

Ground ~20,000 ft ~40,000 ft Winds

LFKF

Details ICAO LFKF (FSC)
Name Figari Sud Corse
Region France
Timezone Europe/Paris (UTC+2.0)
Stats Elevation 87 ft / 27 m (AMSL)
Location 41.502064° 9.096960°
Runways 1
Magnetic Variation 2.425° E

METAR

LFKF 230330Z AUTO VRB01KT 9999 FEW047 SCT058 BKN086 11/11 Q1015 NOSIG

Decode

TAF

TAF LFKF 230200Z 2303/2403 04004KT 9999 FEW025 TEMPO 2303/2307 BKN020 BECMG 2307/2309 25010KT TEMPO 2311/2314 FEW035TCU BECMG 2322/2324 VRB03KT

Decode

Departure Runways

ID Width Length Bearing (true) Bearing (mag) Surface Threshold Offset Overrun Length
05 148 ft / 45 m 8,131 ft / 2,478 m 47.42° 45.00° Asphalt 0 ft / 0 m 0 ft / 0 m
23 148 ft / 45 m 8,131 ft / 2,478 m 227.44° 225.02° Asphalt 0 ft / 0 m 0 ft / 0 m

LIRS

Details ICAO LIRS (GRS)
Name GROSSETO
Region Italy
Timezone Europe/Rome (UTC+2.0)
Stats Elevation 15 ft / 5 m (AMSL)
Location 42.760275° 11.071980°
Runways 2
Magnetic Variation 2.857° E

METAR

LIRS 230255Z 08003KT 9999 FEW004 13/11 Q1014

Decode

TAF

Not found

Destination Runways

ID Width Length Bearing (true) Bearing (mag) Surface Threshold Offset Overrun Length
03 148 ft / 45 m 9,826 ft / 2,995 m 30.87° 28.01° Asphalt 317 ft / 97 m 0 ft / 0 m
03R 80 ft / 24 m 7,731 ft / 2,356 m 30.70° 27.84° Asphalt 0 ft / 0 m 1,091 ft / 333 m
21 148 ft / 45 m 9,826 ft / 2,995 m 210.88° 208.02° Asphalt 0 ft / 0 m 0 ft / 0 m
21L 80 ft / 24 m 7,731 ft / 2,356 m 210.71° 207.85° Asphalt 0 ft / 0 m 875 ft / 267 m

Popular Alternatives